sensor_id;sensor_type;location;lat;lon;timestamp;pressure;altitude;pressure_sealevel;temperature;humidity
56174;BME280;42058;52.308;20.924;2023-03-05T00:09:50;100221.27;;;-3.48;81.95
56174;BME280;42058;52.308;20.924;2023-03-05T00:16:48;100217.73;;;-3.52;82.36
56174;BME280;42058;52.308;20.924;2023-03-05T00:19:37;100216.83;;;-3.53;81.97
56174;BME280;42058;52.308;20.924;2023-03-05T00:25:50;100214.68;;;-3.56;82.61
56174;BME280;42058;52.308;20.924;2023-03-05T00:28:53;100207.25;;;-3.59;82.37
56174;BME280;42058;52.308;20.924;2023-03-05T00:38:32;100198.77;;;-3.61;82.63
56174;BME280;42058;52.308;20.924;2023-03-05T00:44:59;100190.86;;;-3.62;82.16
56174;BME280;42058;52.308;20.924;2023-03-05T00:48:25;100186.88;;;-3.63;82.37
56174;BME280;42058;52.308;20.924;2023-03-05T00:55:23;100184.63;;;-3.65;82.17
56174;BME280;42058;52.308;20.924;2023-03-05T01:09:43;100165.65;;;-3.70;83.83
56174;BME280;42058;52.308;20.924;2023-03-05T01:24:07;100147.46;;;-3.70;86.32
56174;BME280;42058;52.308;20.924;2023-03-05T01:33:52;100146.39;;;-3.72;87.57
56174;BME280;42058;52.308;20.924;2023-03-05T01:37:10;100146.89;;;-3.72;87.40
56174;BME280;42058;52.308;20.924;2023-03-05T01:58:21;100128.45;;;-3.76;90.07
56174;BME280;42058;52.308;20.924;2023-03-05T02:05:42;100122.04;;;-3.78;90.93
56174;BME280;42058;52.308;20.924;2023-03-05T02:09:22;100121.16;;;-3.79;90.86
56174;BME280;42058;52.308;20.924;2023-03-05T02:20:13;100117.84;;;-3.82;91.63
56174;BME280;42058;52.308;20.924;2023-03-05T02:34:54;100105.43;;;-3.84;94.00
56174;BME280;42058;52.308;20.924;2023-03-05T03:09:14;100085.77;;;-3.89;95.82
56174;BME280;42058;52.308;20.924;2023-03-05T03:12:57;100082.48;;;-3.90;96.18
56174;BME280;42058;52.308;20.924;2023-03-05T03:16:05;100083.86;;;-3.90;96.48
56174;BME280;42058;52.308;20.924;2023-03-05T03:18:34;100080.93;;;-3.91;97.10
56174;BME280;42058;52.308;20.924;2023-03-05T03:21:51;100082.48;;;-3.90;96.92
56174;BME280;42058;52.308;20.924;2023-03-05T03:27:21;100078.70;;;-3.91;97.77
56174;BME280;42058;52.308;20.924;2023-03-05T03:30:09;100078.20;;;-3.90;98.20
56174;BME280;42058;52.308;20.924;2023-03-05T03:32:51;100075.98;;;-3.90;98.20
56174;BME280;42058;52.308;20.924;2023-03-05T03:35:37;100073.42;;;-3.90;97.92
56174;BME280;42058;52.308;20.924;2023-03-05T03:38:59;100067.77;;;-3.90;97.81
56174;BME280;42058;52.308;20.924;2023-03-05T03:41:49;100064.18;;;-3.89;98.81
56174;BME280;42058;52.308;20.924;2023-03-05T03:44:23;100064.34;;;-3.89;98.16
56174;BME280;42058;52.308;20.924;2023-03-05T03:46:51;100056.48;;;-3.88;98.43
56174;BME280;42058;52.308;20.924;2023-03-05T03:52:42;100053.25;;;-3.88;98.79
56174;BME280;42058;52.308;20.924;2023-03-05T03:55:41;100047.42;;;-3.88;98.59
56174;BME280;42058;52.308;20.924;2023-03-05T03:58:28;100046.05;;;-3.87;98.64
56174;BME280;42058;52.308;20.924;2023-03-05T04:01:35;100042.80;;;-3.87;98.99
56174;BME280;42058;52.308;20.924;2023-03-05T04:04:35;100043.33;;;-3.87;98.68
56174;BME280;42058;52.308;20.924;2023-03-05T04:07:55;100039.04;;;-3.87;98.50
56174;BME280;42058;52.308;20.924;2023-03-05T04:17:16;100029.84;;;-3.85;98.96
56174;BME280;42058;52.308;20.924;2023-03-05T04:23:53;100026.09;;;-3.84;98.80
56174;BME280;42058;52.308;20.924;2023-03-05T04:26:49;100021.45;;;-3.85;99.18
56174;BME280;42058;52.308;20.924;2023-03-05T04:33:26;100012.73;;;-3.84;99.80
56174;BME280;42058;52.308;20.924;2023-03-05T04:39:09;100006.59;;;-3.83;99.42
56174;BME280;42058;52.308;20.924;2023-03-05T04:41:48;100009.35;;;-3.82;99.63
56174;BME280;42058;52.308;20.924;2023-03-05T04:44:41;100006.77;;;-3.82;99.01
56174;BME280;42058;52.308;20.924;2023-03-05T04:53:33;99998.59;;;-3.80;99.80
56174;BME280;42058;52.308;20.924;2023-03-05T04:56:27;99992.92;;;-3.81;99.47
56174;BME280;42058;52.308;20.924;2023-03-05T04:59:13;99990.19;;;-3.81;99.69
56174;BME280;42058;52.308;20.924;2023-03-05T05:02:22;99985.92;;;-3.80;99.66
56174;BME280;42058;52.308;20.924;2023-03-05T05:05:32;99977.18;;;-3.79;99.75
56174;BME280;42058;52.308;20.924;2023-03-05T05:17:58;99971.21;;;-3.79;99.91
56174;BME280;42058;52.308;20.924;2023-03-05T05:20:31;99969.84;;;-3.79;99.91
56174;BME280;42058;52.308;20.924;2023-03-05T05:23:07;99966.77;;;-3.78;99.63
56174;BME280;42058;52.308;20.924;2023-03-05T05:26:06;99966.08;;;-3.78;99.57
56174;BME280;42058;52.308;20.924;2023-03-05T05:28:45;99964.52;;;-3.79;99.72
56174;BME280;42058;52.308;20.924;2023-03-05T05:31:53;99961.94;;;-3.79;99.96
56174;BME280;42058;52.308;20.924;2023-03-05T05:44:21;99972.80;;;-3.77;99.97
56174;BME280;42058;52.308;20.924;2023-03-05T05:47:27;99974.16;;;-3.77;100.00
56174;BME280;42058;52.308;20.924;2023-03-05T05:53:18;99973.86;;;-3.76;100.00
56174;BME280;42058;52.308;20.924;2023-03-05T06:02:20;99968.46;;;-3.72;100.00
56174;BME280;42058;52.308;20.924;2023-03-05T06:05:24;99965.23;;;-3.70;100.00
56174;BME280;42058;52.308;20.924;2023-03-05T06:08:16;99962.73;;;-3.68;100.00
56174;BME280;42058;52.308;20.924;2023-03-05T06:10:57;99965.02;;;-3.65;100.00
56174;BME280;42058;52.308;20.924;2023-03-05T06:13:47;99955.84;;;-3.62;100.00
56174;BME280;42058;52.308;20.924;2023-03-05T06:16:37;99951.63;;;-3.59;100.00
56174;BME280;42058;52.308;20.924;2023-03-05T06:19:14;99944.86;;;-3.54;100.00
56174;BME280;42058;52.308;20.924;2023-03-05T06:21:49;99933.64;;;-3.50;100.00
56174;BME280;42058;52.308;20.924;2023-03-05T06:24:17;99924.66;;;-3.45;100.00
56174;BME280;42058;52.308;20.924;2023-03-05T06:26:48;99923.74;;;-3.39;100.00
56174;BME280;42058;52.308;20.924;2023-03-05T06:29:24;99925.74;;;-3.34;100.00
56174;BME280;42058;52.308;20.924;2023-03-05T06:32:00;99920.02;;;-3.29;100.00
56174;BME280;42058;52.308;20.924;2023-03-05T06:34:28;99919.63;;;-3.23;100.00
56174;BME280;42058;52.308;20.924;2023-03-05T06:36:56;99924.55;;;-3.17;100.00
56174;BME280;42058;52.308;20.924;2023-03-05T06:39:34;99924.36;;;-3.11;100.00
56174;BME280;42058;52.308;20.924;2023-03-05T06:42:02;99923.76;;;-3.06;100.00
56174;BME280;42058;52.308;20.924;2023-03-05T06:44:34;99920.44;;;-3.00;100.00
56174;BME280;42058;52.308;20.924;2023-03-05T06:47:05;99917.31;;;-2.94;100.00
56174;BME280;42058;52.308;20.924;2023-03-05T06:49:37;99901.29;;;-2.88;100.00
56174;BME280;42058;52.308;20.924;2023-03-05T06:52:16;99892.84;;;-2.80;100.00
56174;BME280;42058;52.308;20.924;2023-03-05T06:54:44;99889.84;;;-2.76;100.00
56174;BME280;42058;52.308;20.924;2023-03-05T06:57:12;99891.67;;;-2.71;100.00
56174;BME280;42058;52.308;20.924;2023-03-05T06:59:40;99891.91;;;-2.66;100.00
56174;BME280;42058;52.308;20.924;2023-03-05T07:02:12;99881.18;;;-2.62;100.00
56174;BME280;42058;52.308;20.924;2023-03-05T07:04:41;99878.85;;;-2.57;100.00
56174;BME280;42058;52.308;20.924;2023-03-05T07:09:47;99887.10;;;-2.47;100.00
56174;BME280;42058;52.308;20.924;2023-03-05T07:12:20;99896.13;;;-2.42;100.00
56174;BME280;42058;52.308;20.924;2023-03-05T07:14:48;99896.70;;;-2.38;100.00
56174;BME280;42058;52.308;20.924;2023-03-05T07:17:45;99895.60;;;-2.33;100.00
56174;BME280;42058;52.308;20.924;2023-03-05T07:20:23;99896.39;;;-2.26;100.00
56174;BME280;42058;52.308;20.924;2023-03-05T07:22:51;99895.09;;;-2.21;100.00
56174;BME280;42058;52.308;20.924;2023-03-05T07:25:23;99897.79;;;-2.15;100.00
56174;BME280;42058;52.308;20.924;2023-03-05T07:27:51;99893.05;;;-2.08;100.00
56174;BME280;42058;52.308;20.924;2023-03-05T07:30:19;99888.88;;;-2.02;99.95
56174;BME280;42058;52.308;20.924;2023-03-05T07:32:50;99886.20;;;-1.97;99.91
56174;BME280;42058;52.308;20.924;2023-03-05T07:35:20;99884.76;;;-1.90;100.00
56174;BME280;42058;52.308;20.924;2023-03-05T07:37:54;99887.27;;;-1.83;99.80
56174;BME280;42058;52.308;20.924;2023-03-05T07:40:25;99884.63;;;-1.77;99.55
56174;BME280;42058;52.308;20.924;2023-03-05T07:42:56;99881.77;;;-1.71;99.44
56174;BME280;42058;52.308;20.924;2023-03-05T07:45:28;99886.67;;;-1.65;99.11
56174;BME280;42058;52.308;20.924;2023-03-05T07:47:59;99883.82;;;-1.59;99.34
56174;BME280;42058;52.308;20.924;2023-03-05T07:50:27;99880.64;;;-1.53;99.31
56174;BME280;42058;52.308;20.924;2023-03-05T07:52:58;99885.55;;;-1.46;99.03
56174;BME280;42058;52.308;20.924;2023-03-05T07:55:48;99877.88;;;-1.40;99.02
56174;BME280;42058;52.308;20.924;2023-03-05T07:58:21;99881.23;;;-1.33;99.37
56174;BME280;42058;52.308;20.924;2023-03-05T08:01:02;99884.23;;;-1.27;99.12
56174;BME280;42058;52.308;20.924;2023-03-05T08:09:59;99876.40;;;-1.07;98.93
56174;BME280;42058;52.308;20.924;2023-03-05T08:16:39;99870.52;;;-0.93;98.58
56174;BME280;42058;52.308;20.924;2023-03-05T08:19:22;99872.83;;;-0.87;98.52
56174;BME280;42058;52.308;20.924;2023-03-05T08:22:10;99871.67;;;-0.83;98.39
56174;BME280;42058;52.308;20.924;2023-03-05T08:24:52;99868.62;;;-0.79;97.21
56174;BME280;42058;52.308;20.924;2023-03-05T08:27:58;99867.29;;;-0.74;97.20
56174;BME280;42058;52.308;20.924;2023-03-05T08:30:47;99869.05;;;-0.70;97.34
56174;BME280;42058;52.308;20.924;2023-03-05T08:33:16;99869.95;;;-0.67;96.30
56174;BME280;42058;52.308;20.924;2023-03-05T08:36:01;99864.82;;;-0.63;96.92
56174;BME280;42058;52.308;20.924;2023-03-05T08:38:42;99865.73;;;-0.59;96.86
56174;BME280;42058;52.308;20.924;2023-03-05T08:41:18;99862.83;;;-0.55;96.76
56174;BME280;42058;52.308;20.924;2023-03-05T08:43:50;99864.39;;;-0.52;95.90
56174;BME280;42058;52.308;20.924;2023-03-05T08:46:32;99864.45;;;-0.49;96.08
56174;BME280;42058;52.308;20.924;2023-03-05T08:49:20;99862.39;;;-0.46;95.45
56174;BME280;42058;52.308;20.924;2023-03-05T08:51:54;99863.11;;;-0.43;95.57
56174;BME280;42058;52.308;20.924;2023-03-05T08:54:22;99863.98;;;-0.40;94.84
56174;BME280;42058;52.308;20.924;2023-03-05T08:56:59;99864.38;;;-0.37;94.68
56174;BME280;42058;52.308;20.924;2023-03-05T08:59:28;99862.66;;;-0.35;94.71
56174;BME280;42058;52.308;20.924;2023-03-05T09:02:01;99861.99;;;-0.32;94.57
56174;BME280;42058;52.308;20.924;2023-03-05T09:04:29;99858.91;;;-0.30;94.48
56174;BME280;42058;52.308;20.924;2023-03-05T09:06:57;99860.48;;;-0.27;94.58
56174;BME280;42058;52.308;20.924;2023-03-05T09:09:25;99861.02;;;-0.24;94.41
56174;BME280;42058;52.308;20.924;2023-03-05T09:11:58;99856.05;;;-0.22;94.51
56174;BME280;42058;52.308;20.924;2023-03-05T09:14:26;99859.34;;;-0.18;94.60
56174;BME280;42058;52.308;20.924;2023-03-05T09:16:55;99858.86;;;-0.15;94.80
56174;BME280;42058;52.308;20.924;2023-03-05T09:19:24;99857.15;;;-0.12;93.81
56174;BME280;42058;52.308;20.924;2023-03-05T09:21:54;99856.83;;;-0.10;93.42
56174;BME280;42058;52.308;20.924;2023-03-05T09:24:27;99860.47;;;-0.08;94.15
56174;BME280;42058;52.308;20.924;2023-03-05T09:26:59;99861.70;;;-0.05;93.41
56174;BME280;42058;52.308;20.924;2023-03-05T09:29:27;99861.02;;;-0.03;93.64
56174;BME280;42058;52.308;20.924;2023-03-05T09:31:56;99863.98;;;0.00;93.36
56174;BME280;42058;52.308;20.924;2023-03-05T09:34:27;99862.95;;;0.02;93.53
56174;BME280;42058;52.308;20.924;2023-03-05T09:36:58;99863.65;;;0.04;93.70
56174;BME280;42058;52.308;20.924;2023-03-05T09:39:36;99862.81;;;0.07;93.70
56174;BME280;42058;52.308;20.924;2023-03-05T09:45:05;99861.13;;;0.12;92.82
56174;BME280;42058;52.308;20.924;2023-03-05T09:51:02;99854.95;;;0.17;92.51
56174;BME280;42058;52.308;20.924;2023-03-05T09:54:38;99855.13;;;0.19;91.84
56174;BME280;42058;52.308;20.924;2023-03-05T09:57:38;99855.15;;;0.23;92.20
56174;BME280;42058;52.308;20.924;2023-03-05T10:00:46;99849.98;;;0.25;92.69
56174;BME280;42058;52.308;20.924;2023-03-05T10:07:00;99850.04;;;0.32;93.02
56174;BME280;42058;52.308;20.924;2023-03-05T10:12:34;99847.83;;;0.39;93.51
56174;BME280;42058;52.308;20.924;2023-03-05T10:18:56;99848.23;;;0.47;92.91
56174;BME280;42058;52.308;20.924;2023-03-05T10:22:06;99842.37;;;0.51;93.03
56174;BME280;42058;52.308;20.924;2023-03-05T10:25:20;99844.62;;;0.55;92.77
56174;BME280;42058;52.308;20.924;2023-03-05T10:28:15;99837.75;;;0.58;92.55
56174;BME280;42058;52.308;20.924;2023-03-05T10:34:38;99832.40;;;0.62;92.49
56174;BME280;42058;52.308;20.924;2023-03-05T10:40:05;99825.52;;;0.65;91.81
56174;BME280;42058;52.308;20.924;2023-03-05T10:43:27;99826.90;;;0.67;92.18
56174;BME280;42058;52.308;20.924;2023-03-05T10:46:02;99819.83;;;0.69;92.00
56174;BME280;42058;52.308;20.924;2023-03-05T10:48:46;99818.27;;;0.71;91.22
56174;BME280;42058;52.308;20.924;2023-03-05T10:53:57;99812.42;;;0.73;91.96
56174;BME280;42058;52.308;20.924;2023-03-05T10:56:27;99808.80;;;0.75;92.10
56174;BME280;42058;52.308;20.924;2023-03-05T10:58:58;99806.92;;;0.78;92.35
56174;BME280;42058;52.308;20.924;2023-03-05T11:01:28;99803.64;;;0.79;92.28
56174;BME280;42058;52.308;20.924;2023-03-05T11:04:28;99803.64;;;0.81;91.80
56174;BME280;42058;52.308;20.924;2023-03-05T11:06:57;99803.14;;;0.82;91.80
56174;BME280;42058;52.308;20.924;2023-03-05T11:09:27;99804.00;;;0.83;92.28
56174;BME280;42058;52.308;20.924;2023-03-05T11:12:24;99798.65;;;0.84;92.78
56174;BME280;42058;52.308;20.924;2023-03-05T11:15:33;99797.45;;;0.85;92.29
56174;BME280;42058;52.308;20.924;2023-03-05T11:18:19;99795.02;;;0.85;92.31
56174;BME280;42058;52.308;20.924;2023-03-05T11:21:09;99791.05;;;0.83;92.29
56174;BME280;42058;52.308;20.924;2023-03-05T11:23:40;99792.42;;;0.82;92.92
56174;BME280;42058;52.308;20.924;2023-03-05T11:28:54;99788.96;;;0.77;93.55
56174;BME280;42058;52.308;20.924;2023-03-05T11:31:32;99787.92;;;0.75;93.65
56174;BME280;42058;52.308;20.924;2023-03-05T11:34:22;99783.24;;;0.73;94.19
56174;BME280;42058;52.308;20.924;2023-03-05T11:39:25;99774.96;;;0.71;94.47
56174;BME280;42058;52.308;20.924;2023-03-05T11:49:47;99764.42;;;0.70;95.84
56174;BME280;42058;52.308;20.924;2023-03-05T11:52:20;99763.39;;;0.70;96.43
56174;BME280;42058;52.308;20.924;2023-03-05T11:55:12;99760.45;;;0.70;96.76
56174;BME280;42058;52.308;20.924;2023-03-05T11:57:47;99761.65;;;0.70;97.56
56174;BME280;42058;52.308;20.924;2023-03-05T12:00:30;99758.03;;;0.72;97.70
56174;BME280;42058;52.308;20.924;2023-03-05T12:03:02;99758.55;;;0.73;97.79
56174;BME280;42058;52.308;20.924;2023-03-05T12:05:36;99751.81;;;0.72;97.96
56174;BME280;42058;52.308;20.924;2023-03-05T12:08:12;99752.16;;;0.73;98.52
56174;BME280;42058;52.308;20.924;2023-03-05T12:10:44;99744.75;;;0.73;98.75
56174;BME280;42058;52.308;20.924;2023-03-05T12:13:34;99746.65;;;0.74;98.96
56174;BME280;42058;52.308;20.924;2023-03-05T12:16:11;99743.70;;;0.74;99.18
56174;BME280;42058;52.308;20.924;2023-03-05T12:18:47;99740.08;;;0.73;99.59
56174;BME280;42058;52.308;20.924;2023-03-05T12:21:42;99737.33;;;0.73;99.95
56174;BME280;42058;52.308;20.924;2023-03-05T12:32:00;99731.96;;;0.70;100.00
56174;BME280;42058;52.308;20.924;2023-03-05T12:37:38;99725.41;;;0.69;100.00
56174;BME280;42058;52.308;20.924;2023-03-05T12:40:33;99726.44;;;0.67;100.00
56174;BME280;42058;52.308;20.924;2023-03-05T12:43:47;99722.13;;;0.65;100.00
56174;BME280;42058;52.308;20.924;2023-03-05T12:46:24;99724.53;;;0.63;100.00
56174;BME280;42058;52.308;20.924;2023-03-05T12:48:52;99720.73;;;0.63;100.00
56174;BME280;42058;52.308;20.924;2023-03-05T12:51:35;99718.14;;;0.63;100.00
56174;BME280;42058;52.308;20.924;2023-03-05T12:54:37;99718.67;;;0.63;100.00
56174;BME280;42058;52.308;20.924;2023-03-05T12:57:24;99714.52;;;0.61;100.00
56174;BME280;42058;52.308;20.924;2023-03-05T13:00:10;99707.27;;;0.61;100.00
56174;BME280;42058;52.308;20.924;2023-03-05T13:05:35;99703.11;;;0.60;100.00
56174;BME280;42058;52.308;20.924;2023-03-05T13:10:50;99702.25;;;0.61;100.00
56174;BME280;42058;52.308;20.924;2023-03-05T13:13:19;99701.91;;;0.62;100.00
56174;BME280;42058;52.308;20.924;2023-03-05T13:15:52;99701.91;;;0.63;100.00
56174;BME280;42058;52.308;20.924;2023-03-05T13:18:40;99695.20;;;0.64;100.00
56174;BME280;42058;52.308;20.924;2023-03-05T13:21:24;99700.55;;;0.66;100.00
56174;BME280;42058;52.308;20.924;2023-03-05T13:23:58;99695.03;;;0.66;100.00
56174;BME280;42058;52.308;20.924;2023-03-05T13:26:37;99695.54;;;0.68;100.00
56174;BME280;42058;52.308;20.924;2023-03-05T13:31:49;99691.23;;;0.71;100.00
56174;BME280;42058;52.308;20.924;2023-03-05T13:34:29;99688.65;;;0.71;100.00
56174;BME280;42058;52.308;20.924;2023-03-05T13:37:16;99686.05;;;0.72;100.00
56174;BME280;42058;52.308;20.924;2023-03-05T13:39:55;99683.45;;;0.73;100.00
56174;BME280;42058;52.308;20.924;2023-03-05T13:42:26;99684.84;;;0.73;100.00
56174;BME280;42058;52.308;20.924;2023-03-05T13:45:17;99680.35;;;0.73;100.00
56174;BME280;42058;52.308;20.924;2023-03-05T13:47:58;99678.29;;;0.73;100.00
56174;BME280;42058;52.308;20.924;2023-03-05T13:50:35;99675.52;;;0.73;100.00
56174;BME280;42058;52.308;20.924;2023-03-05T13:53:21;99673.45;;;0.74;100.00
56174;BME280;42058;52.308;20.924;2023-03-05T13:55:52;99671.39;;;0.74;100.00
56174;BME280;42058;52.308;20.924;2023-03-05T13:58:43;99666.88;;;0.73;100.00
56174;BME280;42058;52.308;20.924;2023-03-05T14:01:34;99664.81;;;0.71;100.00
56174;BME280;42058;52.308;20.924;2023-03-05T14:04:18;99663.26;;;0.69;100.00
56174;BME280;42058;52.308;20.924;2023-03-05T14:07:27;99664.64;;;0.68;100.00
56174;BME280;42058;52.308;20.924;2023-03-05T14:09:56;99658.08;;;0.68;100.00
56174;BME280;42058;52.308;20.924;2023-03-05T14:12:33;99660.16;;;0.68;100.00
56174;BME280;42058;52.308;20.924;2023-03-05T14:15:20;99660.66;;;0.68;100.00
56174;BME280;42058;52.308;20.924;2023-03-05T14:18:27;99658.42;;;0.69;100.00
56174;BME280;42058;52.308;20.924;2023-03-05T14:27:37;99660.84;;;0.66;100.00
56174;BME280;42058;52.308;20.924;2023-03-05T14:34:02;99654.64;;;0.66;100.00
56174;BME280;42058;52.308;20.924;2023-03-05T14:36:50;99650.66;;;0.65;100.00
56174;BME280;42058;52.308;20.924;2023-03-05T14:43:20;99648.94;;;0.66;100.00
56174;BME280;42058;52.308;20.924;2023-03-05T14:45:53;99650.14;;;0.67;100.00
56174;BME280;42058;52.308;20.924;2023-03-05T14:48:55;99650.14;;;0.67;100.00
56174;BME280;42058;52.308;20.924;2023-03-05T14:51:27;99641.34;;;0.68;100.00
56174;BME280;42058;52.308;20.924;2023-03-05T14:53:59;99640.65;;;0.69;100.00
56174;BME280;42058;52.308;20.924;2023-03-05T14:56:37;99643.07;;;0.70;100.00
56174;BME280;42058;52.308;20.924;2023-03-05T14:59:07;99637.36;;;0.70;100.00
56174;BME280;42058;52.308;20.924;2023-03-05T15:01:36;99639.27;;;0.70;100.00
56174;BME280;42058;52.308;20.924;2023-03-05T15:04:09;99636.50;;;0.69;100.00
56174;BME280;42058;52.308;20.924;2023-03-05T15:06:39;99634.27;;;0.70;100.00
56174;BME280;42058;52.308;20.924;2023-03-05T15:09:10;99637.02;;;0.71;100.00
56174;BME280;42058;52.308;20.924;2023-03-05T15:11:39;99639.10;;;0.72;100.00
56174;BME280;42058;52.308;20.924;2023-03-05T15:14:08;99642.20;;;0.72;100.00
56174;BME280;42058;52.308;20.924;2023-03-05T15:16:38;99645.14;;;0.71;100.00
56174;BME280;42058;52.308;20.924;2023-03-05T15:19:11;99643.08;;;0.71;100.00
56174;BME280;42058;52.308;20.924;2023-03-05T15:21:40;99643.42;;;0.71;100.00
56174;BME280;42058;52.308;20.924;2023-03-05T15:24:08;99645.14;;;0.70;100.00
56174;BME280;42058;52.308;20.924;2023-03-05T15:26:40;99646.17;;;0.69;100.00
56174;BME280;42058;52.308;20.924;2023-03-05T15:29:08;99645.66;;;0.69;100.00
56174;BME280;42058;52.308;20.924;2023-03-05T15:31:57;99647.21;;;0.68;100.00
56174;BME280;42058;52.308;20.924;2023-03-05T15:34:48;99644.63;;;0.68;100.00
56174;BME280;42058;52.308;20.924;2023-03-05T15:37:19;99643.07;;;0.67;100.00
56174;BME280;42058;52.308;20.924;2023-03-05T15:39:47;99640.83;;;0.66;100.00
56174;BME280;42058;52.308;20.924;2023-03-05T15:42:15;99633.74;;;0.66;100.00
56174;BME280;42058;52.308;20.924;2023-03-05T15:44:44;99635.30;;;0.66;100.00
56174;BME280;42058;52.308;20.924;2023-03-05T15:47:11;99638.23;;;0.65;100.00
56174;BME280;42058;52.308;20.924;2023-03-05T15:49:42;99637.36;;;0.63;100.00
56174;BME280;42058;52.308;20.924;2023-03-05T15:52:10;99638.73;;;0.62;100.00
56174;BME280;42058;52.308;20.924;2023-03-05T15:54:38;99639.95;;;0.61;100.00
56174;BME280;42058;52.308;20.924;2023-03-05T15:57:08;99642.88;;;0.61;100.00
56174;BME280;42058;52.308;20.924;2023-03-05T15:59:39;99643.40;;;0.60;100.00
56174;BME280;42058;52.308;20.924;2023-03-05T16:02:07;99643.92;;;0.58;100.00
56174;BME280;42058;52.308;20.924;2023-03-05T16:04:35;99644.95;;;0.56;100.00
56174;BME280;42058;52.308;20.924;2023-03-05T16:07:03;99645.81;;;0.55;100.00
56174;BME280;42058;52.308;20.924;2023-03-05T16:09:38;99649.25;;;0.53;100.00
56174;BME280;42058;52.308;20.924;2023-03-05T16:12:11;99651.48;;;0.52;100.00
56174;BME280;42058;52.308;20.924;2023-03-05T16:14:44;99649.43;;;0.50;100.00
56174;BME280;42058;52.308;20.924;2023-03-05T16:17:15;99654.42;;;0.48;100.00
56174;BME280;42058;52.308;20.924;2023-03-05T16:19:52;99657.53;;;0.45;100.00
56174;BME280;42058;52.308;20.924;2023-03-05T16:22:21;99661.84;;;0.43;100.00
56174;BME280;42058;52.308;20.924;2023-03-05T16:24:52;99659.58;;;0.41;100.00
56174;BME280;42058;52.308;20.924;2023-03-05T16:27:20;99661.99;;;0.39;100.00
56174;BME280;42058;52.308;20.924;2023-03-05T16:29:48;99665.79;;;0.37;100.00
56174;BME280;42058;52.308;20.924;2023-03-05T16:32:18;99664.92;;;0.34;100.00
56174;BME280;42058;52.308;20.924;2023-03-05T16:34:47;99668.36;;;0.32;100.00
56174;BME280;42058;52.308;20.924;2023-03-05T16:37:20;99669.22;;;0.30;100.00
56174;BME280;42058;52.308;20.924;2023-03-05T16:39:50;99672.33;;;0.29;100.00
56174;BME280;42058;52.308;20.924;2023-03-05T16:42:18;99663.84;;;0.21;100.00
56174;BME280;42058;52.308;20.924;2023-03-05T16:44:46;99676.95;;;0.24;100.00
56174;BME280;42058;52.308;20.924;2023-03-05T16:47:16;99676.45;;;0.21;100.00
56174;BME280;42058;52.308;20.924;2023-03-05T16:49:44;99678.85;;;0.18;100.00
56174;BME280;42058;52.308;20.924;2023-03-05T16:52:13;99680.39;;;0.17;100.00
56174;BME280;42058;52.308;20.924;2023-03-05T16:54:48;99684.00;;;0.14;100.00
56174;BME280;42058;52.308;20.924;2023-03-05T16:57:16;99682.96;;;0.12;100.00
56174;BME280;42058;52.308;20.924;2023-03-05T16:59:45;99683.98;;;0.11;100.00
56174;BME280;42058;52.308;20.924;2023-03-05T17:02:13;99683.11;;;0.07;100.00
56174;BME280;42058;52.308;20.924;2023-03-05T17:04:44;99685.17;;;0.05;100.00
56174;BME280;42058;52.308;20.924;2023-03-05T17:07:14;99684.13;;;0.02;100.00
56174;BME280;42058;52.308;20.924;2023-03-05T17:09:42;99685.85;;;-0.01;100.00
56174;BME280;42058;52.308;20.924;2023-03-05T17:12:13;99686.00;;;-0.04;100.00
56174;BME280;42058;52.308;20.924;2023-03-05T17:14:44;99688.05;;;-0.07;100.00
56174;BME280;42058;52.308;20.924;2023-03-05T17:17:14;99688.21;;;-0.10;100.00
56174;BME280;42058;52.308;20.924;2023-03-05T17:19:43;99689.58;;;-0.13;100.00
56174;BME280;42058;52.308;20.924;2023-03-05T17:22:13;99689.05;;;-0.16;100.00
56174;BME280;42058;52.308;20.924;2023-03-05T17:24:42;99686.79;;;-0.20;100.00
56174;BME280;42058;52.308;20.924;2023-03-05T17:27:13;99685.04;;;-0.24;100.00
56174;BME280;42058;52.308;20.924;2023-03-05T17:29:45;99687.08;;;-0.28;100.00
56174;BME280;42058;52.308;20.924;2023-03-05T17:32:16;99686.90;;;-0.32;100.00
56174;BME280;42058;52.308;20.924;2023-03-05T17:34:51;99688.77;;;-0.35;100.00
56174;BME280;42058;52.308;20.924;2023-03-05T17:37:21;99688.58;;;-0.39;100.00
56174;BME280;42058;52.308;20.924;2023-03-05T17:39:49;99688.55;;;-0.42;100.00
56174;BME280;42058;52.308;20.924;2023-03-05T17:42:20;99686.81;;;-0.45;100.00
56174;BME280;42058;52.308;20.924;2023-03-05T17:44:48;99686.10;;;-0.49;100.00
56174;BME280;42058;52.308;20.924;2023-03-05T17:47:20;99688.48;;;-0.52;100.00
56174;BME280;42058;52.308;20.924;2023-03-05T17:49:54;99686.40;;;-0.55;100.00
56174;BME280;42058;52.308;20.924;2023-03-05T17:52:22;99688.10;;;-0.60;100.00
56174;BME280;42058;52.308;20.924;2023-03-05T17:54:51;99685.32;;;-0.63;100.00
56174;BME280;42058;52.308;20.924;2023-03-05T17:57:20;99685.81;;;-0.66;100.00
56174;BME280;42058;52.308;20.924;2023-03-05T17:59:51;99685.79;;;-0.70;100.00
56174;BME280;42058;52.308;20.924;2023-03-05T18:02:22;99686.96;;;-0.74;100.00
56174;BME280;42058;52.308;20.924;2023-03-05T18:04:55;99685.72;;;-0.79;100.00
56174;BME280;42058;52.308;20.924;2023-03-05T18:07:25;99691.05;;;-0.83;100.00
56174;BME280;42058;52.308;20.924;2023-03-05T18:09:53;99686.17;;;-0.87;100.00
56174;BME280;42058;52.308;20.924;2023-03-05T18:12:32;99684.59;;;-0.91;100.00
56174;BME280;42058;52.308;20.924;2023-03-05T18:15:00;99682.67;;;-0.94;100.00
56174;BME280;42058;52.308;20.924;2023-03-05T18:17:28;99679.73;;;-0.97;100.00
56174;BME280;42058;52.308;20.924;2023-03-05T18:19:59;99680.23;;;-1.00;100.00
56174;BME280;42058;52.308;20.924;2023-03-05T18:22:34;99683.64;;;-1.03;100.00
56174;BME280;42058;52.308;20.924;2023-03-05T18:25:06;99683.27;;;-1.06;100.00
56174;BME280;42058;52.308;20.924;2023-03-05T18:27:35;99684.11;;;-1.10;100.00
56174;BME280;42058;52.308;20.924;2023-03-05T18:30:06;99684.60;;;-1.12;100.00